createdAt,value
2023-05-19T00:01:37.777Z,2.67
2023-05-19T00:04:07.132Z,2.97
2023-05-19T00:06:38.340Z,2.53
2023-05-19T00:09:08.366Z,2.50
2023-05-19T00:11:37.531Z,2.60
2023-05-19T00:14:07.261Z,2.73
2023-05-19T00:16:36.182Z,3.00
2023-05-19T00:19:05.802Z,2.53
2023-05-19T00:21:34.646Z,2.43
2023-05-19T00:24:05.096Z,2.83
2023-05-19T00:26:33.838Z,2.67
2023-05-19T00:29:02.550Z,3.63
2023-05-19T00:31:32.123Z,2.97
2023-05-19T00:34:00.987Z,3.40
2023-05-19T00:36:29.944Z,2.37
2023-05-19T00:38:58.428Z,2.73
2023-05-19T00:41:28.672Z,2.80
2023-05-19T00:43:57.196Z,2.80
2023-05-19T00:46:25.884Z,2.90
2023-05-19T00:48:54.404Z,2.13
2023-05-19T00:51:22.972Z,3.13
2023-05-19T00:53:52.321Z,2.60
2023-05-19T00:56:21.760Z,3.27
2023-05-19T00:58:52.737Z,3.20
2023-05-19T01:01:21.762Z,2.27
2023-05-19T01:03:53.272Z,3.37
2023-05-19T01:06:22.152Z,2.60
2023-05-19T01:08:51.062Z,3.10
2023-05-19T01:11:19.808Z,2.40
2023-05-19T01:13:48.380Z,2.50
2023-05-19T01:16:21.830Z,2.27
2023-05-19T01:19:00.000Z,2.93
2023-05-19T01:21:37.899Z,2.10
2023-05-19T01:24:15.423Z,2.30
2023-05-19T01:27:01.580Z,2.60
2023-05-19T01:29:43.799Z,2.57
2023-05-19T01:32:14.375Z,3.07
2023-05-19T01:34:44.889Z,2.40
2023-05-19T01:37:15.163Z,2.80
2023-05-19T01:39:44.744Z,3.10
2023-05-19T01:42:14.211Z,2.67
2023-05-19T01:44:42.842Z,2.37
2023-05-19T01:47:11.875Z,2.50
2023-05-19T01:49:42.318Z,3.10
2023-05-19T01:52:11.002Z,2.90
2023-05-19T01:54:39.545Z,3.07
2023-05-19T01:57:12.590Z,3.03
2023-05-19T01:59:49.669Z,2.07
2023-05-19T02:02:23.347Z,2.33
2023-05-19T02:04:56.602Z,3.03
2023-05-19T02:07:29.154Z,3.10
2023-05-19T02:10:04.026Z,2.50
2023-05-19T02:12:35.331Z,2.37
2023-05-19T02:15:07.599Z,2.60
2023-05-19T02:17:38.435Z,2.97
2023-05-19T02:20:10.114Z,3.30
2023-05-19T02:22:40.477Z,2.87
2023-05-19T02:25:09.307Z,3.30
2023-05-19T02:27:38.457Z,2.87
2023-05-19T02:30:07.535Z,3.00
2023-05-19T02:32:36.644Z,2.90
2023-05-19T02:35:05.432Z,3.13
2023-05-19T02:37:35.880Z,2.73
2023-05-19T02:40:04.735Z,2.70
2023-05-19T02:42:33.436Z,2.90
2023-05-19T02:45:02.268Z,2.10
2023-05-19T02:47:31.160Z,3.13
2023-05-19T02:50:00.213Z,3.57
2023-05-19T02:52:29.106Z,3.00
2023-05-19T02:55:01.977Z,2.60
2023-05-19T02:57:31.766Z,2.57
2023-05-19T03:00:00.873Z,2.03
2023-05-19T03:02:29.592Z,3.43
2023-05-19T03:04:58.317Z,2.97
2023-05-19T03:07:26.996Z,2.70
2023-05-19T03:09:55.936Z,2.40
2023-05-19T03:12:33.602Z,2.60
2023-05-19T03:15:02.907Z,3.30
2023-05-19T03:17:34.590Z,2.80
2023-05-19T03:20:03.122Z,2.50
2023-05-19T03:22:32.298Z,2.27
2023-05-19T03:25:01.440Z,3.40
2023-05-19T03:27:30.321Z,2.87
2023-05-19T03:30:04.986Z,2.87
2023-05-19T03:32:37.949Z,3.10
2023-05-19T03:35:07.034Z,2.80
2023-05-19T03:37:35.759Z,2.93
2023-05-19T03:40:05.815Z,3.50
2023-05-19T03:42:34.505Z,2.33
2023-05-19T03:45:05.036Z,2.83
2023-05-19T03:47:33.699Z,2.67
2023-05-19T03:50:02.560Z,3.33
2023-05-19T03:52:31.016Z,2.93
2023-05-19T03:54:59.543Z,3.40
2023-05-19T03:57:29.469Z,2.63
2023-05-19T03:59:59.008Z,3.40
2023-05-19T04:02:29.126Z,2.80
2023-05-19T04:04:57.926Z,2.50
2023-05-19T04:07:27.264Z,2.70
2023-05-19T04:09:55.807Z,2.77
2023-05-19T04:12:25.052Z,2.80
2023-05-19T04:14:53.908Z,3.03
2023-05-19T04:17:26.331Z,3.10
2023-05-19T04:19:56.481Z,2.80
2023-05-19T04:22:25.083Z,3.10
2023-05-19T04:24:53.777Z,2.43
2023-05-19T04:27:22.368Z,3.13
2023-05-19T04:29:50.945Z,3.30
2023-05-19T04:32:19.629Z,2.87
2023-05-19T04:34:48.219Z,3.30
2023-05-19T04:37:18.147Z,2.90
2023-05-19T04:39:46.707Z,3.60
2023-05-19T04:42:19.258Z,3.20
2023-05-19T04:44:49.421Z,3.70
2023-05-19T04:47:18.222Z,2.90
2023-05-19T04:49:46.742Z,3.10
2023-05-19T04:52:16.110Z,3.67
2023-05-19T04:54:46.793Z,3.10
2023-05-19T04:57:15.269Z,2.40
2023-05-19T04:59:43.890Z,3.03
2023-05-19T05:02:12.670Z,2.30
2023-05-19T05:04:42.760Z,3.20
2023-05-19T05:07:11.712Z,2.57
2023-05-19T05:09:40.081Z,2.90
2023-05-19T05:12:11.972Z,3.57
2023-05-19T05:14:41.306Z,3.10
2023-05-19T05:17:10.962Z,2.90
2023-05-19T05:19:39.707Z,3.50
2023-05-19T05:22:08.565Z,3.80
2023-05-19T05:24:38.438Z,3.53
2023-05-19T05:27:08.337Z,3.13
2023-05-19T05:29:38.429Z,2.93
2023-05-19T05:32:08.125Z,3.20
2023-05-19T05:34:38.260Z,3.47
2023-05-19T05:37:06.839Z,3.13
2023-05-19T05:39:36.126Z,3.63
2023-05-19T05:42:06.764Z,3.23
2023-05-19T05:44:35.926Z,3.60
2023-05-19T05:47:06.655Z,3.60
2023-05-19T05:49:38.524Z,3.07
2023-05-19T05:52:07.960Z,2.47
2023-05-19T05:54:36.779Z,3.00
2023-05-19T05:57:09.309Z,4.40
2023-05-19T05:59:38.764Z,2.73
2023-05-19T06:02:08.873Z,3.00
2023-05-19T06:04:37.882Z,2.83
2023-05-19T06:07:10.217Z,3.27
2023-05-19T06:09:38.718Z,3.43
2023-05-19T06:12:15.408Z,3.27
2023-05-19T06:14:49.253Z,3.07
2023-05-19T06:17:20.899Z,3.23
2023-05-19T06:19:56.825Z,3.00
2023-05-19T06:22:26.212Z,3.10
2023-05-19T06:24:56.328Z,3.73
2023-05-19T06:27:24.729Z,2.63
2023-05-19T06:29:59.703Z,3.77
2023-05-19T06:32:29.846Z,3.13
2023-05-19T06:35:01.890Z,3.00
2023-05-19T06:37:37.774Z,2.87
2023-05-19T06:40:12.795Z,2.90
2023-05-19T06:42:47.236Z,2.80
2023-05-19T06:45:16.153Z,2.83
2023-05-19T06:47:46.707Z,2.70
2023-05-19T06:50:23.239Z,2.97
2023-05-19T06:52:53.212Z,2.50
2023-05-19T06:55:24.156Z,2.60
2023-05-19T06:57:53.110Z,2.50
2023-05-19T07:00:29.219Z,2.83
2023-05-19T07:03:03.495Z,2.47
2023-05-19T07:05:32.108Z,2.17
2023-05-19T07:08:01.937Z,2.67
2023-05-19T07:10:39.650Z,2.60
2023-05-19T07:13:08.734Z,3.00
2023-05-19T07:15:38.964Z,3.20
2023-05-19T07:18:09.408Z,3.00
2023-05-19T07:20:39.728Z,3.07
2023-05-19T07:23:29.086Z,3.40
2023-05-19T07:26:03.101Z,2.90
2023-05-19T07:28:34.562Z,3.20
2023-05-19T07:31:03.543Z,3.60
2023-05-19T07:33:34.481Z,2.93
2023-05-19T07:36:04.606Z,2.93
2023-05-19T07:38:34.688Z,3.47
2023-05-19T07:41:03.779Z,3.53
2023-05-19T07:43:43.871Z,2.80
2023-05-19T07:46:12.497Z,2.87
2023-05-19T07:48:42.637Z,2.70
2023-05-19T07:51:11.736Z,2.87
2023-05-19T07:53:40.569Z,3.07
2023-05-19T07:56:09.071Z,3.90
2023-05-19T07:58:37.529Z,3.13
2023-05-19T08:01:07.018Z,3.97
2023-05-19T08:03:35.710Z,3.40
2023-05-19T08:06:06.399Z,3.90
2023-05-19T08:08:34.891Z,3.53
2023-05-19T08:11:04.764Z,4.00
2023-05-19T08:13:34.819Z,3.50
2023-05-19T08:16:04.226Z,2.80
2023-05-19T08:18:33.076Z,3.03
2023-05-19T08:21:03.687Z,3.47
2023-05-19T08:23:38.110Z,3.53
2023-05-19T08:26:07.248Z,2.90
2023-05-19T08:28:35.841Z,3.97
2023-05-19T08:31:08.185Z,3.07
2023-05-19T08:33:37.822Z,3.30
2023-05-19T08:36:07.245Z,3.67
2023-05-19T08:38:38.211Z,3.80
2023-05-19T08:41:13.572Z,2.70
2023-05-19T08:43:45.671Z,2.80
2023-05-19T08:46:18.831Z,3.43
2023-05-19T08:48:48.887Z,3.60
2023-05-19T08:51:23.021Z,2.57
2023-05-19T08:53:59.967Z,2.70
2023-05-19T08:56:36.287Z,2.83
2023-05-19T08:59:06.560Z,3.37
2023-05-19T09:04:04.941Z,3.03
2023-05-19T09:06:33.984Z,2.83
2023-05-19T09:09:08.744Z,3.03
2023-05-19T09:11:39.018Z,2.93
2023-05-19T09:14:12.285Z,2.93
2023-05-19T09:16:41.231Z,2.90
2023-05-19T09:19:17.743Z,3.03
2023-05-19T09:21:50.175Z,2.83
2023-05-19T09:24:20.442Z,4.00
2023-05-19T09:26:49.527Z,3.40
2023-05-19T09:29:22.325Z,2.90
2023-05-19T09:31:52.893Z,3.80
2023-05-19T09:34:35.395Z,2.90
2023-05-19T09:37:06.094Z,3.50
2023-05-19T09:39:41.163Z,3.73
2023-05-19T09:42:25.280Z,2.90
2023-05-19T09:45:02.469Z,3.93
2023-05-19T09:47:45.305Z,3.30
2023-05-19T09:50:15.921Z,3.57
2023-05-19T09:52:45.366Z,3.40
2023-05-19T09:55:15.769Z,3.20
2023-05-19T09:57:47.346Z,3.87
2023-05-19T10:00:17.652Z,3.63
2023-05-19T10:02:50.347Z,3.80
2023-05-19T10:05:20.841Z,3.50
2023-05-19T10:07:52.431Z,3.50
2023-05-19T10:10:23.212Z,3.67
2023-05-19T10:12:52.498Z,3.30
2023-05-19T10:15:27.681Z,3.87
2023-05-19T10:18:01.053Z,2.93
2023-05-19T10:20:29.859Z,3.60
2023-05-19T10:22:59.901Z,4.17
2023-05-19T10:25:30.771Z,3.77
2023-05-19T10:28:01.732Z,3.37
2023-05-19T10:30:31.750Z,4.10
2023-05-19T10:33:02.567Z,4.17
2023-05-19T10:35:49.917Z,4.30
2023-05-19T10:38:23.858Z,4.27
2023-05-19T10:40:55.882Z,4.70
2023-05-19T10:43:28.413Z,3.53
2023-05-19T10:45:57.957Z,4.37
2023-05-19T10:48:26.528Z,4.10
2023-05-19T10:50:58.170Z,4.73
2023-05-19T10:53:32.943Z,4.17
2023-05-19T10:56:04.411Z,3.10
2023-05-19T10:58:40.404Z,3.77
2023-05-19T11:01:10.999Z,3.57
2023-05-19T11:03:49.886Z,4.13
2023-05-19T11:06:28.548Z,3.50
2023-05-19T11:09:01.406Z,5.17
2023-05-19T11:11:44.971Z,4.70
2023-05-19T11:14:16.497Z,4.30
2023-05-19T11:16:46.953Z,4.80
2023-05-19T11:19:20.807Z,4.13
2023-05-19T11:21:52.678Z,4.67
2023-05-19T11:24:41.990Z,4.80
2023-05-19T11:27:20.030Z,4.37
2023-05-19T11:29:54.573Z,4.67
2023-05-19T11:32:23.590Z,4.30
2023-05-19T11:34:52.212Z,3.70
2023-05-19T11:37:21.069Z,4.30
2023-05-19T11:39:49.905Z,4.20
2023-05-19T11:42:21.707Z,3.83
2023-05-19T11:44:51.949Z,4.50
2023-05-19T11:47:23.070Z,4.13
2023-05-19T11:49:53.289Z,3.70
2023-05-19T11:52:29.242Z,4.67
2023-05-19T11:54:58.519Z,4.90
2023-05-19T11:57:29.715Z,4.80
2023-05-19T12:00:00.010Z,5.50
2023-05-19T12:02:31.872Z,4.27
2023-05-19T12:05:02.875Z,4.20
2023-05-19T12:07:33.469Z,4.67
2023-05-19T12:10:02.881Z,5.23
2023-05-19T12:12:37.744Z,4.50
2023-05-19T12:15:08.587Z,4.53
2023-05-19T12:17:37.153Z,4.90
2023-05-19T12:20:06.901Z,4.20
2023-05-19T12:22:37.132Z,4.47
2023-05-19T12:25:06.898Z,5.10
2023-05-19T12:27:38.350Z,4.70
2023-05-19T12:30:09.382Z,4.70
2023-05-19T12:32:38.649Z,5.40
2023-05-19T12:35:07.966Z,4.90
2023-05-19T12:37:37.596Z,4.43
2023-05-19T12:40:06.790Z,4.67
2023-05-19T12:42:37.834Z,4.13
2023-05-19T12:45:08.815Z,5.83
2023-05-19T12:47:43.663Z,4.20
2023-05-19T12:50:23.559Z,5.13
2023-05-19T12:52:52.504Z,4.23
2023-05-19T12:55:25.587Z,4.77
2023-05-19T12:58:03.717Z,5.90
2023-05-19T13:06:46.117Z,5.07
2023-05-19T13:09:19.000Z,4.80
2023-05-19T13:12:06.450Z,5.60
2023-05-19T13:14:49.016Z,3.90
2023-05-19T13:17:25.156Z,5.50
2023-05-19T13:20:14.246Z,4.70
2023-05-19T13:25:32.905Z,5.90
2023-05-19T13:28:36.284Z,5.40
2023-05-19T13:31:28.019Z,5.33
2023-05-19T13:34:35.312Z,5.60
2023-05-19T13:37:12.893Z,4.30
2023-05-19T13:39:53.935Z,4.93
2023-05-19T13:42:24.740Z,5.90
2023-05-19T13:44:56.665Z,5.50
2023-05-19T13:47:31.970Z,5.27
2023-05-19T13:50:24.554Z,5.83
2023-05-19T13:53:23.465Z,4.90
2023-05-19T13:55:55.498Z,5.40
2023-05-19T13:58:26.786Z,5.13
2023-05-19T14:01:02.894Z,5.73
2023-05-19T14:06:57.079Z,4.43
2023-05-19T14:09:27.436Z,4.83
2023-05-19T14:13:12.448Z,4.63
2023-05-19T14:17:49.239Z,5.87
2023-05-19T14:20:23.983Z,4.47
2023-05-19T14:22:52.491Z,4.63
2023-05-19T14:26:13.630Z,5.00
2023-05-19T14:28:50.261Z,4.93
2023-05-19T14:31:22.020Z,4.53
2023-05-19T14:34:05.818Z,4.90
2023-05-19T14:36:36.024Z,4.40
2023-05-19T14:39:05.147Z,4.73
2023-05-19T14:41:34.565Z,4.60
2023-05-19T14:44:05.655Z,5.33
2023-05-19T14:46:44.187Z,4.70
2023-05-19T14:49:17.372Z,3.87
2023-05-19T14:51:56.013Z,4.23
2023-05-19T14:54:25.212Z,4.33
2023-05-19T14:56:55.780Z,4.27
2023-05-19T14:59:38.688Z,4.30
2023-05-19T15:02:29.778Z,3.80
2023-05-19T15:04:58.531Z,3.20
2023-05-19T15:07:27.575Z,4.23
2023-05-19T15:10:03.418Z,3.73
2023-05-19T15:12:34.864Z,4.10
2023-05-19T15:15:05.695Z,3.47
2023-05-19T15:17:38.412Z,4.60
2023-05-19T15:20:07.571Z,4.40
2023-05-19T15:22:38.593Z,4.50
2023-05-19T15:25:07.898Z,3.93
2023-05-19T15:27:37.384Z,4.23
2023-05-19T15:30:18.022Z,4.37
2023-05-19T15:32:46.805Z,3.37
2023-05-19T15:35:17.208Z,4.80
2023-05-19T15:37:46.245Z,3.70
2023-05-19T15:40:19.626Z,3.87
2023-05-19T15:42:48.426Z,4.43
2023-05-19T15:45:18.389Z,3.90
2023-05-19T15:47:47.086Z,4.20
2023-05-19T15:50:16.855Z,4.50
2023-05-19T15:52:46.408Z,4.60
2023-05-19T15:55:15.762Z,3.20
2023-05-19T15:57:45.138Z,4.60
2023-05-19T16:00:14.628Z,4.77
2023-05-19T16:02:46.094Z,3.70
2023-05-19T16:05:15.336Z,3.90
2023-05-19T16:07:44.015Z,4.20
2023-05-19T16:10:12.807Z,3.70
2023-05-19T16:12:42.850Z,3.30
2023-05-19T16:15:11.709Z,4.30
2023-05-19T16:17:41.433Z,3.37
2023-05-19T16:20:13.902Z,4.30
2023-05-19T16:22:51.357Z,4.50
2023-05-19T16:25:21.114Z,3.87
2023-05-19T16:27:49.670Z,3.90
2023-05-19T16:30:23.159Z,3.57
2023-05-19T16:33:06.454Z,4.00
2023-05-19T16:35:45.239Z,3.97
2023-05-19T16:38:14.820Z,3.90
2023-05-19T16:40:46.489Z,3.70
2023-05-19T16:43:15.880Z,3.70
2023-05-19T16:45:51.671Z,3.80
2023-05-19T16:48:26.862Z,3.50
2023-05-19T16:50:59.278Z,3.20
2023-05-19T16:53:39.411Z,3.20
2023-05-19T16:56:14.238Z,2.87
2023-05-19T16:58:43.564Z,4.30
2023-05-19T17:01:13.625Z,3.23
2023-05-19T17:03:42.546Z,3.37
2023-05-19T17:06:13.009Z,2.60
2023-05-19T17:08:41.681Z,3.13
2023-05-19T17:11:12.164Z,2.30
2023-05-19T17:13:42.635Z,3.20
2023-05-19T17:16:14.642Z,3.10
2023-05-19T17:18:43.906Z,2.93
2023-05-19T17:21:22.209Z,3.33
2023-05-19T17:23:51.520Z,2.80
2023-05-19T17:26:20.720Z,3.00
2023-05-19T17:28:49.533Z,2.90
2023-05-19T17:31:18.443Z,2.33
2023-05-19T17:33:49.501Z,2.40
2023-05-19T17:36:29.646Z,2.07
2023-05-19T17:39:01.876Z,2.50
2023-05-19T17:41:36.996Z,2.60
2023-05-19T17:44:06.860Z,3.30
2023-05-19T17:46:39.439Z,2.83
2023-05-19T17:49:08.332Z,3.30
2023-05-19T17:51:44.451Z,2.83
2023-05-19T17:54:20.269Z,2.17
2023-05-19T17:56:52.180Z,2.87
2023-05-19T17:59:25.218Z,3.97
2023-05-19T18:01:57.199Z,2.90
2023-05-19T18:04:27.066Z,2.30
2023-05-19T18:07:06.356Z,2.80
2023-05-19T18:09:46.158Z,2.30
2023-05-19T18:12:15.033Z,2.53
2023-05-19T18:14:44.262Z,2.50
2023-05-19T18:17:20.707Z,2.77
2023-05-19T18:19:49.680Z,2.83
2023-05-19T18:22:20.373Z,2.93
2023-05-19T18:24:54.757Z,2.50
2023-05-19T18:27:23.442Z,2.83
2023-05-19T18:29:52.935Z,2.43
2023-05-19T18:32:31.943Z,2.97
2023-05-19T18:35:01.172Z,2.10
2023-05-19T18:37:32.545Z,2.73
2023-05-19T18:40:09.063Z,2.07
2023-05-19T18:42:38.016Z,2.60
2023-05-19T18:45:08.183Z,2.87
2023-05-19T18:47:45.313Z,3.03
2023-05-19T18:50:14.736Z,2.07
2023-05-19T18:52:45.395Z,2.90
2023-05-19T18:55:20.092Z,2.43
2023-05-19T18:57:48.965Z,3.07
2023-05-19T19:00:18.191Z,2.60
2023-05-19T19:02:47.110Z,2.40
2023-05-19T19:05:20.086Z,2.63
2023-05-19T19:07:50.287Z,2.60
2023-05-19T19:10:19.254Z,2.80
2023-05-19T19:12:54.455Z,2.50
2023-05-19T19:15:23.204Z,2.50
2023-05-19T19:17:59.630Z,2.90
2023-05-19T19:20:32.928Z,2.30
2023-05-19T19:23:07.228Z,3.10
2023-05-19T19:25:47.072Z,2.80
2023-05-19T19:28:17.417Z,2.27
2023-05-19T19:30:48.267Z,2.90
2023-05-19T19:33:19.444Z,2.83
2023-05-19T19:35:48.836Z,2.30
2023-05-19T19:38:29.303Z,2.83
2023-05-19T19:41:04.692Z,2.97
2023-05-19T19:43:41.811Z,3.67
2023-05-19T19:46:10.578Z,3.23
2023-05-19T19:48:39.179Z,4.27
2023-05-19T19:51:09.976Z,3.57
2023-05-19T19:53:45.721Z,3.57
2023-05-19T19:56:14.830Z,4.03
2023-05-19T19:58:44.127Z,4.50
2023-05-19T20:01:12.990Z,4.10
2023-05-19T20:03:42.233Z,3.27
2023-05-19T20:06:11.008Z,3.77
2023-05-19T20:08:54.596Z,3.10
2023-05-19T20:11:24.778Z,3.90
2023-05-19T20:13:53.749Z,2.87
2023-05-19T20:16:24.219Z,3.63
2023-05-19T20:18:53.166Z,3.33
2023-05-19T20:21:22.147Z,3.50
2023-05-19T20:23:52.139Z,2.23
2023-05-19T20:26:22.608Z,2.50
2023-05-19T20:28:51.252Z,2.87
2023-05-19T20:31:23.636Z,3.07
2023-05-19T20:33:52.820Z,2.83
2023-05-19T20:36:22.167Z,3.20
2023-05-19T20:38:51.085Z,3.20
2023-05-19T20:41:19.982Z,2.83
2023-05-19T20:43:50.136Z,3.20
2023-05-19T20:46:19.347Z,4.90
2023-05-19T20:48:47.997Z,4.43
2023-05-19T20:51:16.655Z,4.00
2023-05-19T20:53:45.913Z,2.90
2023-05-19T20:56:14.808Z,2.47
2023-05-19T20:58:52.467Z,3.93
2023-05-19T21:01:25.223Z,3.70
2023-05-19T21:04:01.409Z,4.27
2023-05-19T21:06:36.515Z,3.20
2023-05-19T21:09:07.130Z,3.97
2023-05-19T21:11:43.373Z,2.57
2023-05-19T21:14:19.781Z,2.87
2023-05-19T21:16:58.100Z,2.60
2023-05-19T21:19:26.875Z,2.67
2023-05-19T21:22:01.365Z,2.30
2023-05-19T21:24:31.154Z,2.10
2023-05-19T21:27:17.235Z,2.47
2023-05-19T21:29:46.050Z,2.07
2023-05-19T21:32:16.549Z,1.80
2023-05-19T21:34:49.830Z,2.10
2023-05-19T21:37:18.782Z,2.40
2023-05-19T21:39:47.759Z,2.23
2023-05-19T21:42:16.484Z,2.00
2023-05-19T21:44:46.277Z,2.43
2023-05-19T21:47:16.786Z,2.47
2023-05-19T21:49:45.482Z,1.80
2023-05-19T21:52:14.182Z,2.20
2023-05-19T21:54:45.840Z,1.80
2023-05-19T21:57:14.654Z,1.97
2023-05-19T21:59:44.465Z,1.90
2023-05-19T22:02:18.026Z,2.50
2023-05-19T22:04:48.875Z,2.33
2023-05-19T22:07:17.908Z,1.43
2023-05-19T22:09:48.899Z,1.90
2023-05-19T22:12:18.745Z,2.53
2023-05-19T22:14:52.455Z,2.97
2023-05-19T22:17:21.128Z,1.90
2023-05-19T22:19:51.746Z,1.80
2023-05-19T22:22:20.597Z,2.63
2023-05-19T22:24:49.058Z,2.30
2023-05-19T22:27:18.003Z,2.37
2023-05-19T22:29:48.000Z,2.50
2023-05-19T22:32:18.628Z,2.33
2023-05-19T22:34:47.381Z,2.77
2023-05-19T22:37:17.804Z,2.50
2023-05-19T22:39:46.821Z,2.03
2023-05-19T22:42:18.838Z,3.30
2023-05-19T22:44:49.504Z,2.87
2023-05-19T22:47:18.126Z,2.23
2023-05-19T22:49:46.712Z,2.50
2023-05-19T22:52:15.410Z,2.70
2023-05-19T22:54:45.764Z,2.60
2023-05-19T22:57:14.341Z,3.10
2023-05-19T22:59:42.876Z,2.30
2023-05-19T23:02:11.415Z,2.80
2023-05-19T23:04:41.042Z,2.27
2023-05-19T23:07:09.590Z,2.30
2023-05-19T23:09:38.054Z,2.47
2023-05-19T23:12:08.583Z,2.67
2023-05-19T23:14:37.474Z,2.87
2023-05-19T23:17:06.183Z,2.40
2023-05-19T23:19:36.483Z,2.47
2023-05-19T23:22:05.752Z,2.50
2023-05-19T23:24:34.236Z,2.40
2023-05-19T23:27:02.759Z,3.00
2023-05-19T23:29:33.365Z,2.60
2023-05-19T23:32:02.096Z,2.40
2023-05-19T23:34:30.770Z,2.30
2023-05-19T23:36:59.365Z,2.13
2023-05-19T23:39:27.947Z,2.43
2023-05-19T23:41:57.224Z,2.03
2023-05-19T23:44:27.302Z,2.83
2023-05-19T23:46:57.309Z,2.30
2023-05-19T23:49:26.201Z,3.00
2023-05-19T23:51:54.792Z,3.40
2023-05-19T23:54:23.278Z,3.03
2023-05-19T23:56:51.828Z,3.67
2023-05-19T23:59:20.318Z,3.10
